Pagrindinis puslapis
METAR-TAF:

METAR-TAF

Oro uostai :

Qaisumah, Saudo Arabija

platuma: 28-19N, ilguma: 046-07E, Aukštis: 358 m

Dabartinis oras

Ataskaita buvo paskelbta 1 valandą ir 4 minutes, ne 22:00 UTC
Vėjas 8 kt iš Šiaurės
Temperatūra 28°C
Drėgmė 23%
Slėgis 1011 hPa
Matomumas 10 km arba daugiau
nėra debesų žemiau 1500 m ir nėra kamuolinių lietaus debesų

METAR: OEPA 242200Z 35008KT CAVOK 28/05 Q1011 NOSIG

Laikas: 02:04 (23:04 UTC)

Prognozė

Ataskaita buvo paskelbta 14 valandos ir 4 minutes, ne 09:00 UTC
Prognozė galioja nuo 24 metu 12 UTC su 25 metu 18 UTC
Vėjas 12 kt iš Šiaurės/Šiaurės Vakarų
Matomumas 10 km arba daugiau
nėra debesų žemiau 1500 m ir nėra kamuolinių lietaus debesų
Laikinai
nuo 25 metu 06 UTC su 25 metu 17 UTC
Vėjas 22 kt iš Šiaurės/Šiaurės Vakarų
Matomumas: 4000 m
Dulkes pustymas
Tikimybė 30% :
Laikinai
nuo 25 metu 12 UTC su 25 metu 16 UTC
Matomumas: 0800 m

TAF: OEPA 240900Z 2412/2518 33012KT CAVOK TEMPO 2506/2517 34022KT 4000 BLDU NSC PROB30 TEMPO 2512/2516 0800 DS

Orai ataskaitas ir orų prognozės (METAR, TAF).

turimą stotys yra geltonos ir raudonos taškus žemėlapyje.

Perkelti pele per norėdami pamatyti stoties vardą.

Tada spustelėkite, norėdami matyti oro stebėjimo ir prognozės.

Norėdami pakeisti žemėlapį: spustelėkite ant žalios mygtukų su juodo kryžiaus žemyn,; žalią mygtuką su brūkšneliu, jei norite nutolinti; arba žalių rodyklių gretimoms žemėlapius.


METAR-TAF: